sensor_id;sensor_type;location;lat;lon;timestamp;P1;durP1;ratioP1;P2;durP2;ratioP2
19812;SDS011;10066;48.108;11.448;2022-12-07T00:00:45;12.63;;;9.47;;
19812;SDS011;10066;48.108;11.448;2022-12-07T00:03:12;9.27;;;5.60;;
19812;SDS011;10066;48.108;11.448;2022-12-07T00:05:39;12.87;;;9.93;;
19812;SDS011;10066;48.108;11.448;2022-12-07T00:08:06;13.33;;;9.33;;
19812;SDS011;10066;48.108;11.448;2022-12-07T00:10:33;15.67;;;10.47;;
19812;SDS011;10066;48.108;11.448;2022-12-07T00:13:00;16.00;;;10.43;;
19812;SDS011;10066;48.108;11.448;2022-12-07T00:15:26;12.37;;;8.93;;
19812;SDS011;10066;48.108;11.448;2022-12-07T00:17:55;15.03;;;9.60;;
19812;SDS011;10066;48.108;11.448;2022-12-07T00:20:22;13.17;;;9.77;;
19812;SDS011;10066;48.108;11.448;2022-12-07T00:22:49;14.83;;;10.40;;
19812;SDS011;10066;48.108;11.448;2022-12-07T00:25:16;9.60;;;7.40;;
19812;SDS011;10066;48.108;11.448;2022-12-07T00:27:43;10.77;;;8.43;;
19812;SDS011;10066;48.108;11.448;2022-12-07T00:30:10;10.10;;;7.43;;
19812;SDS011;10066;48.108;11.448;2022-12-07T00:32:37;11.93;;;8.93;;
19812;SDS011;10066;48.108;11.448;2022-12-07T00:35:06;10.40;;;7.97;;
19812;SDS011;10066;48.108;11.448;2022-12-07T00:37:34;6.07;;;4.40;;
19812;SDS011;10066;48.108;11.448;2022-12-07T00:40:00;9.97;;;8.00;;
19812;SDS011;10066;48.108;11.448;2022-12-07T00:42:27;11.17;;;8.00;;
19812;SDS011;10066;48.108;11.448;2022-12-07T00:44:55;13.43;;;8.63;;
19812;SDS011;10066;48.108;11.448;2022-12-07T00:47:22;11.13;;;7.53;;
19812;SDS011;10066;48.108;11.448;2022-12-07T00:49:49;9.63;;;7.83;;
19812;SDS011;10066;48.108;11.448;2022-12-07T00:52:17;10.17;;;6.43;;
19812;SDS011;10066;48.108;11.448;2022-12-07T00:54:44;8.50;;;6.70;;
19812;SDS011;10066;48.108;11.448;2022-12-07T00:57:11;7.77;;;5.90;;
19812;SDS011;10066;48.108;11.448;2022-12-07T00:59:38;7.33;;;5.47;;
19812;SDS011;10066;48.108;11.448;2022-12-07T01:02:05;8.13;;;6.30;;
19812;SDS011;10066;48.108;11.448;2022-12-07T01:04:33;9.90;;;7.67;;
19812;SDS011;10066;48.108;11.448;2022-12-07T01:07:00;6.07;;;4.07;;
19812;SDS011;10066;48.108;11.448;2022-12-07T01:09:28;9.93;;;7.43;;
19812;SDS011;10066;48.108;11.448;2022-12-07T01:11:55;10.40;;;7.67;;
19812;SDS011;10066;48.108;11.448;2022-12-07T01:14:22;12.13;;;8.10;;
19812;SDS011;10066;48.108;11.448;2022-12-07T01:16:49;10.60;;;7.50;;
19812;SDS011;10066;48.108;11.448;2022-12-07T01:19:16;10.03;;;7.97;;
19812;SDS011;10066;48.108;11.448;2022-12-07T01:21:43;11.20;;;8.03;;
19812;SDS011;10066;48.108;11.448;2022-12-07T01:24:10;10.23;;;7.37;;
19812;SDS011;10066;48.108;11.448;2022-12-07T01:26:38;10.67;;;8.20;;
19812;SDS011;10066;48.108;11.448;2022-12-07T01:29:06;12.73;;;7.87;;
19812;SDS011;10066;48.108;11.448;2022-12-07T01:31:35;12.07;;;8.90;;
19812;SDS011;10066;48.108;11.448;2022-12-07T01:34:02;10.67;;;8.30;;
19812;SDS011;10066;48.108;11.448;2022-12-07T01:36:30;10.23;;;7.97;;
19812;SDS011;10066;48.108;11.448;2022-12-07T01:38:59;9.67;;;7.77;;
19812;SDS011;10066;48.108;11.448;2022-12-07T01:41:27;10.07;;;7.23;;
19812;SDS011;10066;48.108;11.448;2022-12-07T01:44:14;8.23;;;7.23;;
19812;SDS011;10066;48.108;11.448;2022-12-07T01:46:47;10.60;;;8.00;;
19812;SDS011;10066;48.108;11.448;2022-12-07T01:49:23;9.70;;;8.07;;
19812;SDS011;10066;48.108;11.448;2022-12-07T01:51:55;9.80;;;7.57;;
19812;SDS011;10066;48.108;11.448;2022-12-07T01:54:27;9.10;;;7.30;;
19812;SDS011;10066;48.108;11.448;2022-12-07T01:56:54;9.57;;;7.37;;
19812;SDS011;10066;48.108;11.448;2022-12-07T01:59:24;12.20;;;8.50;;
19812;SDS011;10066;48.108;11.448;2022-12-07T02:01:52;9.10;;;7.03;;
19812;SDS011;10066;48.108;11.448;2022-12-07T02:04:21;9.93;;;8.20;;
19812;SDS011;10066;48.108;11.448;2022-12-07T02:06:48;9.80;;;7.27;;
19812;SDS011;10066;48.108;11.448;2022-12-07T02:09:16;9.70;;;7.97;;
19812;SDS011;10066;48.108;11.448;2022-12-07T02:11:44;10.37;;;7.60;;
19812;SDS011;10066;48.108;11.448;2022-12-07T02:14:12;10.83;;;7.70;;
19812;SDS011;10066;48.108;11.448;2022-12-07T02:16:44;10.77;;;8.63;;
19812;SDS011;10066;48.108;11.448;2022-12-07T02:22:20;9.30;;;6.93;;
19812;SDS011;10066;48.108;11.448;2022-12-07T02:24:58;10.80;;;7.80;;
19812;SDS011;10066;48.108;11.448;2022-12-07T02:27:36;10.83;;;8.50;;
19812;SDS011;10066;48.108;11.448;2022-12-07T02:30:10;10.60;;;8.53;;
19812;SDS011;10066;48.108;11.448;2022-12-07T02:32:41;9.57;;;7.60;;
19812;SDS011;10066;48.108;11.448;2022-12-07T02:35:13;9.70;;;7.43;;
19812;SDS011;10066;48.108;11.448;2022-12-07T02:37:47;11.23;;;8.67;;
19812;SDS011;10066;48.108;11.448;2022-12-07T02:40:25;11.90;;;8.77;;
19812;SDS011;10066;48.108;11.448;2022-12-07T02:42:55;10.70;;;8.57;;
19812;SDS011;10066;48.108;11.448;2022-12-07T02:45:29;11.93;;;8.00;;
19812;SDS011;10066;48.108;11.448;2022-12-07T02:47:58;11.63;;;8.13;;
19812;SDS011;10066;48.108;11.448;2022-12-07T02:50:28;9.97;;;7.60;;
19812;SDS011;10066;48.108;11.448;2022-12-07T02:52:55;10.67;;;8.23;;
19812;SDS011;10066;48.108;11.448;2022-12-07T02:55:25;12.03;;;8.07;;
19812;SDS011;10066;48.108;11.448;2022-12-07T02:58:05;12.00;;;8.87;;
19812;SDS011;10066;48.108;11.448;2022-12-07T03:00:46;9.90;;;7.90;;
19812;SDS011;10066;48.108;11.448;2022-12-07T03:03:21;11.80;;;7.67;;
19812;SDS011;10066;48.108;11.448;2022-12-07T03:05:53;11.03;;;8.73;;
19812;SDS011;10066;48.108;11.448;2022-12-07T03:08:42;11.13;;;8.07;;
19812;SDS011;10066;48.108;11.448;2022-12-07T03:11:15;10.30;;;8.30;;
19812;SDS011;10066;48.108;11.448;2022-12-07T03:13:48;9.67;;;7.90;;
19812;SDS011;10066;48.108;11.448;2022-12-07T03:16:21;9.87;;;8.00;;
19812;SDS011;10066;48.108;11.448;2022-12-07T03:18:53;9.70;;;7.83;;
19812;SDS011;10066;48.108;11.448;2022-12-07T03:21:27;10.70;;;8.10;;
19812;SDS011;10066;48.108;11.448;2022-12-07T03:23:58;11.23;;;8.50;;
19812;SDS011;10066;48.108;11.448;2022-12-07T03:26:30;9.77;;;8.00;;
19812;SDS011;10066;48.108;11.448;2022-12-07T03:29:02;10.00;;;7.80;;
19812;SDS011;10066;48.108;11.448;2022-12-07T03:31:36;10.13;;;8.00;;
19812;SDS011;10066;48.108;11.448;2022-12-07T03:34:06;9.90;;;8.33;;
19812;SDS011;10066;48.108;11.448;2022-12-07T03:36:39;10.57;;;8.40;;
19812;SDS011;10066;48.108;11.448;2022-12-07T03:39:12;11.27;;;8.53;;
19812;SDS011;10066;48.108;11.448;2022-12-07T03:41:46;10.60;;;8.17;;
19812;SDS011;10066;48.108;11.448;2022-12-07T03:44:13;10.47;;;8.23;;
19812;SDS011;10066;48.108;11.448;2022-12-07T03:46:44;10.03;;;8.20;;
19812;SDS011;10066;48.108;11.448;2022-12-07T03:49:19;10.83;;;8.17;;
19812;SDS011;10066;48.108;11.448;2022-12-07T03:51:51;11.27;;;8.77;;
19812;SDS011;10066;48.108;11.448;2022-12-07T03:54:23;10.93;;;8.67;;
19812;SDS011;10066;48.108;11.448;2022-12-07T03:56:54;12.10;;;8.80;;
19812;SDS011;10066;48.108;11.448;2022-12-07T03:59:23;13.67;;;8.93;;
19812;SDS011;10066;48.108;11.448;2022-12-07T04:01:53;12.10;;;8.30;;
19812;SDS011;10066;48.108;11.448;2022-12-07T04:04:21;11.30;;;7.23;;
19812;SDS011;10066;48.108;11.448;2022-12-07T04:06:49;10.40;;;7.60;;
19812;SDS011;10066;48.108;11.448;2022-12-07T04:09:16;13.67;;;10.27;;
19812;SDS011;10066;48.108;11.448;2022-12-07T04:11:43;12.33;;;7.83;;
19812;SDS011;10066;48.108;11.448;2022-12-07T04:14:10;13.20;;;9.30;;
19812;SDS011;10066;48.108;11.448;2022-12-07T04:16:47;12.33;;;9.43;;
19812;SDS011;10066;48.108;11.448;2022-12-07T04:19:16;13.87;;;10.67;;
19812;SDS011;10066;48.108;11.448;2022-12-07T04:21:44;10.50;;;7.83;;
19812;SDS011;10066;48.108;11.448;2022-12-07T04:24:11;11.63;;;8.67;;
19812;SDS011;10066;48.108;11.448;2022-12-07T04:26:39;9.83;;;6.77;;
19812;SDS011;10066;48.108;11.448;2022-12-07T04:29:06;12.53;;;9.77;;
19812;SDS011;10066;48.108;11.448;2022-12-07T04:31:33;14.27;;;10.00;;
19812;SDS011;10066;48.108;11.448;2022-12-07T04:34:00;12.50;;;8.80;;
19812;SDS011;10066;48.108;11.448;2022-12-07T04:36:28;12.53;;;9.60;;
19812;SDS011;10066;48.108;11.448;2022-12-07T04:38:55;14.57;;;10.23;;
19812;SDS011;10066;48.108;11.448;2022-12-07T04:41:22;11.67;;;8.43;;
19812;SDS011;10066;48.108;11.448;2022-12-07T04:43:52;11.17;;;7.43;;
19812;SDS011;10066;48.108;11.448;2022-12-07T04:46:20;13.83;;;9.57;;
19812;SDS011;10066;48.108;11.448;2022-12-07T04:48:47;12.83;;;9.27;;
19812;SDS011;10066;48.108;11.448;2022-12-07T04:51:14;14.67;;;10.40;;
19812;SDS011;10066;48.108;11.448;2022-12-07T04:53:45;15.73;;;8.20;;
19812;SDS011;10066;48.108;11.448;2022-12-07T04:56:13;13.03;;;9.60;;
19812;SDS011;10066;48.108;11.448;2022-12-07T04:58:40;11.63;;;8.43;;
19812;SDS011;10066;48.108;11.448;2022-12-07T05:01:08;11.63;;;8.07;;
19812;SDS011;10066;48.108;11.448;2022-12-07T05:03:35;11.50;;;9.13;;
19812;SDS011;10066;48.108;11.448;2022-12-07T05:06:02;13.53;;;10.00;;
19812;SDS011;10066;48.108;11.448;2022-12-07T05:08:30;14.93;;;9.93;;
19812;SDS011;10066;48.108;11.448;2022-12-07T05:10:59;13.47;;;10.27;;
19812;SDS011;10066;48.108;11.448;2022-12-07T05:13:27;13.83;;;10.37;;
19812;SDS011;10066;48.108;11.448;2022-12-07T05:15:53;12.83;;;10.10;;
19812;SDS011;10066;48.108;11.448;2022-12-07T05:18:21;13.00;;;10.53;;
19812;SDS011;10066;48.108;11.448;2022-12-07T05:20:48;12.60;;;10.17;;
19812;SDS011;10066;48.108;11.448;2022-12-07T05:23:16;14.50;;;10.40;;
19812;SDS011;10066;48.108;11.448;2022-12-07T05:25:43;16.17;;;10.80;;
19812;SDS011;10066;48.108;11.448;2022-12-07T05:28:11;13.67;;;9.97;;
19812;SDS011;10066;48.108;11.448;2022-12-07T05:30:39;13.97;;;10.03;;
19812;SDS011;10066;48.108;11.448;2022-12-07T05:33:07;12.63;;;10.00;;
19812;SDS011;10066;48.108;11.448;2022-12-07T05:35:34;12.83;;;10.20;;
19812;SDS011;10066;48.108;11.448;2022-12-07T05:38:02;13.90;;;10.37;;
19812;SDS011;10066;48.108;11.448;2022-12-07T05:40:29;12.77;;;9.73;;
19812;SDS011;10066;48.108;11.448;2022-12-07T05:43:00;12.70;;;10.37;;
19812;SDS011;10066;48.108;11.448;2022-12-07T05:45:28;12.53;;;9.73;;
19812;SDS011;10066;48.108;11.448;2022-12-07T05:47:55;12.50;;;9.13;;
19812;SDS011;10066;48.108;11.448;2022-12-07T05:50:22;11.83;;;9.80;;
19812;SDS011;10066;48.108;11.448;2022-12-07T05:52:49;11.80;;;9.33;;
19812;SDS011;10066;48.108;11.448;2022-12-07T05:55:16;11.30;;;8.50;;
19812;SDS011;10066;48.108;11.448;2022-12-07T05:57:43;12.10;;;9.50;;
19812;SDS011;10066;48.108;11.448;2022-12-07T06:00:32;12.77;;;9.00;;
19812;SDS011;10066;48.108;11.448;2022-12-07T06:02:57;12.00;;;9.10;;
19812;SDS011;10066;48.108;11.448;2022-12-07T06:05:27;11.67;;;9.17;;
19812;SDS011;10066;48.108;11.448;2022-12-07T06:07:54;12.17;;;9.17;;
19812;SDS011;10066;48.108;11.448;2022-12-07T06:10:22;11.90;;;9.33;;
19812;SDS011;10066;48.108;11.448;2022-12-07T06:12:49;13.30;;;10.27;;
19812;SDS011;10066;48.108;11.448;2022-12-07T06:15:15;13.13;;;9.13;;
19812;SDS011;10066;48.108;11.448;2022-12-07T06:17:43;11.57;;;8.93;;
19812;SDS011;10066;48.108;11.448;2022-12-07T06:20:10;14.43;;;9.40;;
19812;SDS011;10066;48.108;11.448;2022-12-07T06:22:37;11.90;;;9.30;;
19812;SDS011;10066;48.108;11.448;2022-12-07T06:25:04;11.70;;;9.43;;
19812;SDS011;10066;48.108;11.448;2022-12-07T06:27:32;12.17;;;9.87;;
19812;SDS011;10066;48.108;11.448;2022-12-07T06:30:00;12.83;;;10.27;;
19812;SDS011;10066;48.108;11.448;2022-12-07T06:32:31;12.37;;;9.73;;
19812;SDS011;10066;48.108;11.448;2022-12-07T06:34:59;12.17;;;9.33;;
19812;SDS011;10066;48.108;11.448;2022-12-07T06:37:26;13.70;;;10.07;;
19812;SDS011;10066;48.108;11.448;2022-12-07T06:39:53;12.77;;;10.13;;
19812;SDS011;10066;48.108;11.448;2022-12-07T06:42:21;12.53;;;9.57;;
19812;SDS011;10066;48.108;11.448;2022-12-07T06:44:48;13.47;;;10.23;;
19812;SDS011;10066;48.108;11.448;2022-12-07T06:47:15;15.70;;;11.17;;
19812;SDS011;10066;48.108;11.448;2022-12-07T06:49:41;12.20;;;9.83;;
19812;SDS011;10066;48.108;11.448;2022-12-07T06:52:10;13.50;;;9.83;;
19812;SDS011;10066;48.108;11.448;2022-12-07T06:54:36;12.93;;;9.67;;
19812;SDS011;10066;48.108;11.448;2022-12-07T06:57:03;11.50;;;9.77;;
19812;SDS011;10066;48.108;11.448;2022-12-07T06:59:30;13.80;;;10.87;;
19812;SDS011;10066;48.108;11.448;2022-12-07T07:01:58;13.50;;;10.73;;
19812;SDS011;10066;48.108;11.448;2022-12-07T07:04:26;14.50;;;11.07;;
19812;SDS011;10066;48.108;11.448;2022-12-07T07:06:52;14.20;;;10.53;;
19812;SDS011;10066;48.108;11.448;2022-12-07T07:09:21;13.97;;;10.67;;
19812;SDS011;10066;48.108;11.448;2022-12-07T07:11:48;13.70;;;11.23;;
19812;SDS011;10066;48.108;11.448;2022-12-07T07:14:15;13.27;;;10.60;;
19812;SDS011;10066;48.108;11.448;2022-12-07T07:16:44;14.43;;;11.23;;
19812;SDS011;10066;48.108;11.448;2022-12-07T07:19:11;14.80;;;11.53;;
19812;SDS011;10066;48.108;11.448;2022-12-07T07:21:37;12.80;;;10.43;;
19812;SDS011;10066;48.108;11.448;2022-12-07T07:24:05;12.53;;;9.87;;
19812;SDS011;10066;48.108;11.448;2022-12-07T07:26:33;13.70;;;9.03;;
19812;SDS011;10066;48.108;11.448;2022-12-07T07:29:00;12.83;;;9.90;;
19812;SDS011;10066;48.108;11.448;2022-12-07T07:31:27;12.57;;;10.40;;
19812;SDS011;10066;48.108;11.448;2022-12-07T07:33:54;11.83;;;9.63;;
19812;SDS011;10066;48.108;11.448;2022-12-07T07:36:21;12.07;;;9.17;;
19812;SDS011;10066;48.108;11.448;2022-12-07T07:38:48;13.87;;;9.70;;
19812;SDS011;10066;48.108;11.448;2022-12-07T07:41:15;11.93;;;9.90;;
19812;SDS011;10066;48.108;11.448;2022-12-07T07:43:43;11.73;;;9.80;;
19812;SDS011;10066;48.108;11.448;2022-12-07T07:46:10;12.33;;;9.40;;
19812;SDS011;10066;48.108;11.448;2022-12-07T07:48:37;11.67;;;9.73;;
19812;SDS011;10066;48.108;11.448;2022-12-07T07:51:04;11.43;;;9.50;;
19812;SDS011;10066;48.108;11.448;2022-12-07T07:53:32;13.00;;;10.43;;
19812;SDS011;10066;48.108;11.448;2022-12-07T07:55:59;13.03;;;9.93;;
19812;SDS011;10066;48.108;11.448;2022-12-07T07:58:27;14.27;;;10.60;;
19812;SDS011;10066;48.108;11.448;2022-12-07T08:00:55;15.47;;;10.47;;
19812;SDS011;10066;48.108;11.448;2022-12-07T08:03:22;12.47;;;10.23;;
19812;SDS011;10066;48.108;11.448;2022-12-07T08:05:50;13.43;;;9.77;;
19812;SDS011;10066;48.108;11.448;2022-12-07T08:08:17;13.37;;;10.43;;
19812;SDS011;10066;48.108;11.448;2022-12-07T08:10:44;14.33;;;10.37;;
19812;SDS011;10066;48.108;11.448;2022-12-07T08:13:11;15.23;;;10.20;;
19812;SDS011;10066;48.108;11.448;2022-12-07T08:15:39;12.80;;;10.17;;
19812;SDS011;10066;48.108;11.448;2022-12-07T08:18:08;14.40;;;9.97;;
19812;SDS011;10066;48.108;11.448;2022-12-07T08:20:36;14.37;;;10.37;;
19812;SDS011;10066;48.108;11.448;2022-12-07T08:23:03;13.47;;;10.37;;
19812;SDS011;10066;48.108;11.448;2022-12-07T08:25:31;15.57;;;10.70;;
19812;SDS011;10066;48.108;11.448;2022-12-07T08:27:58;13.20;;;10.63;;
19812;SDS011;10066;48.108;11.448;2022-12-07T08:30:25;14.70;;;10.43;;
19812;SDS011;10066;48.108;11.448;2022-12-07T08:32:53;13.57;;;10.60;;
19812;SDS011;10066;48.108;11.448;2022-12-07T08:35:23;12.83;;;10.57;;
19812;SDS011;10066;48.108;11.448;2022-12-07T08:37:51;14.57;;;10.97;;
19812;SDS011;10066;48.108;11.448;2022-12-07T08:40:18;16.80;;;11.23;;
19812;SDS011;10066;48.108;11.448;2022-12-07T08:42:48;17.20;;;10.23;;
19812;SDS011;10066;48.108;11.448;2022-12-07T08:45:15;14.47;;;11.30;;
19812;SDS011;10066;48.108;11.448;2022-12-07T08:47:44;14.80;;;10.70;;
19812;SDS011;10066;48.108;11.448;2022-12-07T08:50:14;15.17;;;10.93;;
19812;SDS011;10066;48.108;11.448;2022-12-07T08:52:46;15.07;;;11.00;;
19812;SDS011;10066;48.108;11.448;2022-12-07T08:55:18;14.70;;;10.40;;
19812;SDS011;10066;48.108;11.448;2022-12-07T08:57:45;14.63;;;10.57;;
19812;SDS011;10066;48.108;11.448;2022-12-07T09:00:13;17.53;;;11.13;;
19812;SDS011;10066;48.108;11.448;2022-12-07T09:02:42;14.20;;;10.97;;
19812;SDS011;10066;48.108;11.448;2022-12-07T09:05:13;14.67;;;10.70;;
19812;SDS011;10066;48.108;11.448;2022-12-07T09:07:40;12.13;;;9.30;;
19812;SDS011;10066;48.108;11.448;2022-12-07T09:10:11;13.47;;;10.67;;
19812;SDS011;10066;48.108;11.448;2022-12-07T09:12:38;13.33;;;10.57;;
19812;SDS011;10066;48.108;11.448;2022-12-07T09:15:06;12.63;;;10.00;;
19812;SDS011;10066;48.108;11.448;2022-12-07T09:17:34;15.80;;;10.13;;
19812;SDS011;10066;48.108;11.448;2022-12-07T09:20:03;11.90;;;9.87;;
19812;SDS011;10066;48.108;11.448;2022-12-07T09:22:31;12.47;;;9.63;;
19812;SDS011;10066;48.108;11.448;2022-12-07T09:24:59;12.40;;;9.93;;
19812;SDS011;10066;48.108;11.448;2022-12-07T09:27:26;11.07;;;8.67;;
19812;SDS011;10066;48.108;11.448;2022-12-07T09:29:54;10.30;;;8.33;;
19812;SDS011;10066;48.108;11.448;2022-12-07T09:32:22;12.17;;;9.17;;
19812;SDS011;10066;48.108;11.448;2022-12-07T09:34:49;11.27;;;9.20;;
19812;SDS011;10066;48.108;11.448;2022-12-07T09:37:16;11.13;;;9.07;;
19812;SDS011;10066;48.108;11.448;2022-12-07T09:39:43;11.13;;;9.27;;
19812;SDS011;10066;48.108;11.448;2022-12-07T09:42:12;12.03;;;8.73;;
19812;SDS011;10066;48.108;11.448;2022-12-07T09:44:50;11.80;;;9.03;;
19812;SDS011;10066;48.108;11.448;2022-12-07T09:47:16;10.60;;;8.47;;
19812;SDS011;10066;48.108;11.448;2022-12-07T09:49:44;12.00;;;9.30;;
19812;SDS011;10066;48.108;11.448;2022-12-07T09:52:17;11.50;;;9.23;;
19812;SDS011;10066;48.108;11.448;2022-12-07T09:54:48;10.80;;;9.00;;
19812;SDS011;10066;48.108;11.448;2022-12-07T09:57:18;11.57;;;8.67;;
19812;SDS011;10066;48.108;11.448;2022-12-07T09:59:47;11.07;;;8.60;;
19812;SDS011;10066;48.108;11.448;2022-12-07T10:02:23;11.67;;;8.17;;
19812;SDS011;10066;48.108;11.448;2022-12-07T10:04:54;9.67;;;7.90;;
19812;SDS011;10066;48.108;11.448;2022-12-07T10:07:23;9.93;;;8.13;;
19812;SDS011;10066;48.108;11.448;2022-12-07T10:09:51;9.97;;;8.30;;
19812;SDS011;10066;48.108;11.448;2022-12-07T10:12:20;11.80;;;8.70;;
19812;SDS011;10066;48.108;11.448;2022-12-07T10:14:54;32.93;;;23.00;;
19812;SDS011;10066;48.108;11.448;2022-12-07T10:17:29;11.87;;;8.70;;
19812;SDS011;10066;48.108;11.448;2022-12-07T10:20:10;10.33;;;8.23;;
19812;SDS011;10066;48.108;11.448;2022-12-07T10:22:52;9.47;;;7.97;;
19812;SDS011;10066;48.108;11.448;2022-12-07T10:25:22;7.77;;;6.90;;
19812;SDS011;10066;48.108;11.448;2022-12-07T10:28:08;10.13;;;7.30;;
19812;SDS011;10066;48.108;11.448;2022-12-07T10:30:55;8.13;;;6.97;;
19812;SDS011;10066;48.108;11.448;2022-12-07T10:33:28;7.90;;;6.40;;
19812;SDS011;10066;48.108;11.448;2022-12-07T10:36:00;7.73;;;6.13;;
19812;SDS011;10066;48.108;11.448;2022-12-07T10:38:44;7.57;;;6.30;;
19812;SDS011;10066;48.108;11.448;2022-12-07T10:41:12;8.17;;;6.53;;
19812;SDS011;10066;48.108;11.448;2022-12-07T10:43:46;9.17;;;6.80;;
19812;SDS011;10066;48.108;11.448;2022-12-07T10:49:20;9.13;;;6.47;;
19812;SDS011;10066;48.108;11.448;2022-12-07T10:52:14;9.37;;;6.87;;
19812;SDS011;10066;48.108;11.448;2022-12-07T10:54:50;9.73;;;6.53;;
19812;SDS011;10066;48.108;11.448;2022-12-07T10:57:30;8.63;;;6.70;;
19812;SDS011;10066;48.108;11.448;2022-12-07T11:00:13;7.40;;;6.20;;
19812;SDS011;10066;48.108;11.448;2022-12-07T11:02:47;7.47;;;5.50;;
19812;SDS011;10066;48.108;11.448;2022-12-07T11:05:37;8.60;;;5.37;;
19812;SDS011;10066;48.108;11.448;2022-12-07T11:08:12;7.67;;;5.67;;
19812;SDS011;10066;48.108;11.448;2022-12-07T11:10:47;6.30;;;5.40;;
19812;SDS011;10066;48.108;11.448;2022-12-07T11:13:23;7.20;;;5.17;;
19812;SDS011;10066;48.108;11.448;2022-12-07T11:18:57;7.03;;;5.47;;
19812;SDS011;10066;48.108;11.448;2022-12-07T11:21:34;7.10;;;5.43;;
19812;SDS011;10066;48.108;11.448;2022-12-07T11:24:11;6.17;;;4.97;;
19812;SDS011;10066;48.108;11.448;2022-12-07T11:26:46;5.20;;;4.57;;
19812;SDS011;10066;48.108;11.448;2022-12-07T11:29:24;5.93;;;5.03;;
19812;SDS011;10066;48.108;11.448;2022-12-07T11:32:07;5.07;;;4.13;;
19812;SDS011;10066;48.108;11.448;2022-12-07T11:34:46;5.03;;;4.20;;
19812;SDS011;10066;48.108;11.448;2022-12-07T11:37:25;8.80;;;4.13;;
19812;SDS011;10066;48.108;11.448;2022-12-07T11:39:58;5.10;;;4.23;;
19812;SDS011;10066;48.108;11.448;2022-12-07T11:42:29;5.30;;;4.07;;
19812;SDS011;10066;48.108;11.448;2022-12-07T11:45:00;5.97;;;4.37;;
19812;SDS011;10066;48.108;11.448;2022-12-07T11:47:38;5.30;;;3.97;;
19812;SDS011;10066;48.108;11.448;2022-12-07T11:50:21;5.60;;;4.10;;
19812;SDS011;10066;48.108;11.448;2022-12-07T11:52:53;5.30;;;4.27;;
19812;SDS011;10066;48.108;11.448;2022-12-07T11:55:24;5.37;;;4.00;;
19812;SDS011;10066;48.108;11.448;2022-12-07T11:57:57;5.03;;;3.70;;
19812;SDS011;10066;48.108;11.448;2022-12-07T12:00:30;7.50;;;4.20;;
19812;SDS011;10066;48.108;11.448;2022-12-07T12:03:01;6.40;;;4.30;;
19812;SDS011;10066;48.108;11.448;2022-12-07T12:05:30;5.97;;;4.00;;
19812;SDS011;10066;48.108;11.448;2022-12-07T12:07:59;6.27;;;4.83;;
19812;SDS011;10066;48.108;11.448;2022-12-07T12:10:34;6.97;;;4.60;;
19812;SDS011;10066;48.108;11.448;2022-12-07T12:13:16;4.77;;;4.27;;
19812;SDS011;10066;48.108;11.448;2022-12-07T12:15:58;5.17;;;4.23;;
19812;SDS011;10066;48.108;11.448;2022-12-07T12:18:41;5.50;;;4.20;;
19812;SDS011;10066;48.108;11.448;2022-12-07T12:21:22;4.40;;;3.40;;
19812;SDS011;10066;48.108;11.448;2022-12-07T12:23:55;5.20;;;4.33;;
19812;SDS011;10066;48.108;11.448;2022-12-07T12:26:27;6.77;;;4.37;;
19812;SDS011;10066;48.108;11.448;2022-12-07T12:28:57;7.87;;;5.30;;
19812;SDS011;10066;48.108;11.448;2022-12-07T12:31:31;5.03;;;4.20;;
19812;SDS011;10066;48.108;11.448;2022-12-07T12:34:03;5.80;;;4.70;;
19812;SDS011;10066;48.108;11.448;2022-12-07T12:36:55;9.00;;;5.43;;
19812;SDS011;10066;48.108;11.448;2022-12-07T12:39:22;5.97;;;4.60;;
19812;SDS011;10066;48.108;11.448;2022-12-07T12:41:51;6.40;;;5.00;;
19812;SDS011;10066;48.108;11.448;2022-12-07T12:47:51;5.60;;;4.67;;
19812;SDS011;10066;48.108;11.448;2022-12-07T12:50:22;8.67;;;5.23;;
19812;SDS011;10066;48.108;11.448;2022-12-07T12:52:58;9.40;;;5.23;;
19812;SDS011;10066;48.108;11.448;2022-12-07T12:55:57;8.60;;;5.47;;
19812;SDS011;10066;48.108;11.448;2022-12-07T12:58:47;6.77;;;5.33;;
19812;SDS011;10066;48.108;11.448;2022-12-07T13:04:14;7.47;;;5.30;;
19812;SDS011;10066;48.108;11.448;2022-12-07T13:06:49;7.37;;;5.83;;
19812;SDS011;10066;48.108;11.448;2022-12-07T13:09:18;9.80;;;5.70;;
19812;SDS011;10066;48.108;11.448;2022-12-07T13:11:47;7.77;;;5.80;;
19812;SDS011;10066;48.108;11.448;2022-12-07T13:17:07;10.33;;;6.20;;
19812;SDS011;10066;48.108;11.448;2022-12-07T13:25:31;13.70;;;6.17;;
19812;SDS011;10066;48.108;11.448;2022-12-07T13:28:09;9.40;;;5.80;;
19812;SDS011;10066;48.108;11.448;2022-12-07T13:30:45;34.67;;;6.87;;
19812;SDS011;10066;48.108;11.448;2022-12-07T13:33:28;22.50;;;6.30;;
19812;SDS011;10066;48.108;11.448;2022-12-07T13:35:56;8.87;;;5.67;;
19812;SDS011;10066;48.108;11.448;2022-12-07T13:38:27;14.60;;;6.60;;
19812;SDS011;10066;48.108;11.448;2022-12-07T13:40:59;14.87;;;6.30;;
19812;SDS011;10066;48.108;11.448;2022-12-07T13:43:30;8.80;;;5.60;;
19812;SDS011;10066;48.108;11.448;2022-12-07T13:45:57;8.00;;;5.67;;
19812;SDS011;10066;48.108;11.448;2022-12-07T13:48:28;7.63;;;6.10;;
19812;SDS011;10066;48.108;11.448;2022-12-07T13:50:59;8.23;;;6.50;;
19812;SDS011;10066;48.108;11.448;2022-12-07T13:53:28;10.30;;;7.80;;
19812;SDS011;10066;48.108;11.448;2022-12-07T13:55:56;8.13;;;6.67;;
19812;SDS011;10066;48.108;11.448;2022-12-07T13:58:24;7.73;;;5.80;;
19812;SDS011;10066;48.108;11.448;2022-12-07T14:00:53;12.10;;;6.27;;
19812;SDS011;10066;48.108;11.448;2022-12-07T14:03:25;16.30;;;6.40;;
19812;SDS011;10066;48.108;11.448;2022-12-07T14:06:13;17.83;;;6.80;;
19812;SDS011;10066;48.108;11.448;2022-12-07T14:09:06;10.27;;;6.30;;
19812;SDS011;10066;48.108;11.448;2022-12-07T14:11:34;9.53;;;5.73;;
19812;SDS011;10066;48.108;11.448;2022-12-07T14:14:02;19.47;;;6.90;;
19812;SDS011;10066;48.108;11.448;2022-12-07T14:16:32;25.60;;;7.00;;
19812;SDS011;10066;48.108;11.448;2022-12-07T14:19:01;10.93;;;6.70;;
19812;SDS011;10066;48.108;11.448;2022-12-07T14:21:30;8.63;;;5.87;;
19812;SDS011;10066;48.108;11.448;2022-12-07T14:26:46;17.33;;;7.10;;
19812;SDS011;10066;48.108;11.448;2022-12-07T14:29:30;16.17;;;6.03;;
19812;SDS011;10066;48.108;11.448;2022-12-07T14:32:10;9.57;;;6.83;;
19812;SDS011;10066;48.108;11.448;2022-12-07T14:34:55;24.10;;;7.20;;
19812;SDS011;10066;48.108;11.448;2022-12-07T14:37:27;15.80;;;7.00;;
19812;SDS011;10066;48.108;11.448;2022-12-07T14:39:56;14.67;;;6.53;;
19812;SDS011;10066;48.108;11.448;2022-12-07T14:42:24;28.30;;;8.17;;
19812;SDS011;10066;48.108;11.448;2022-12-07T14:44:54;14.17;;;6.83;;
19812;SDS011;10066;48.108;11.448;2022-12-07T14:47:22;10.50;;;6.43;;
19812;SDS011;10066;48.108;11.448;2022-12-07T14:49:49;12.23;;;6.80;;
19812;SDS011;10066;48.108;11.448;2022-12-07T14:52:17;14.80;;;6.83;;
19812;SDS011;10066;48.108;11.448;2022-12-07T14:54:46;21.33;;;6.73;;
19812;SDS011;10066;48.108;11.448;2022-12-07T14:57:15;12.43;;;6.67;;
19812;SDS011;10066;48.108;11.448;2022-12-07T14:59:41;8.77;;;5.97;;
19812;SDS011;10066;48.108;11.448;2022-12-07T15:02:09;8.90;;;6.63;;
19812;SDS011;10066;48.108;11.448;2022-12-07T15:04:38;14.23;;;7.23;;
19812;SDS011;10066;48.108;11.448;2022-12-07T15:07:06;11.73;;;7.07;;
19812;SDS011;10066;48.108;11.448;2022-12-07T15:09:39;12.77;;;7.10;;